Time;durP1;ratioP1;P1;durP2;ratioP2;P2;SDS_P1;SDS_P2;PMS_P1;PMS_P2;Temp;Humidity;BMP_temperature;BMP_pressure;BME280_temperature;BME280_humidity;BME280_pressure;Samples;Min_cycle;Max_cycle;Signal;HPM_P1;HPM_P2
2022/01/18 00:02:25;;;;;;;4.97;1.23;;;6.50;99.90;;;;;;5039031;28;20233;-67
2022/01/18 00:04:51;;;;;;;2.80;1.40;;;6.60;99.90;;;;;;5054595;28;20579;-67
2022/01/18 00:07:17;;;;;;;4.93;1.30;;;6.60;99.90;;;;;;5046041;28;20241;-68
2022/01/18 00:09:44;;;;;;;2.90;1.20;;;6.70;99.90;;;;;;5046639;28;20186;-67
2022/01/18 00:15:15;;;;;;;5.30;1.37;;;6.80;99.90;;;;;;5047578;28;20191;-67
2022/01/18 00:17:52;;;;;;;1.87;1.20;;;6.80;99.90;;;;;;5034021;28;20203;-67
2022/01/18 00:20:26;;;;;;;4.77;1.60;;;6.90;99.90;;;;;;5046949;28;20242;-67
2022/01/18 00:22:52;;;;;;;5.80;1.27;;;6.90;99.90;;;;;;5046337;28;21028;-67
2022/01/18 00:25:19;;;;;;;8.03;1.40;;;7.00;99.90;;;;;;5034917;28;20603;-67
2022/01/18 00:27:45;;;;;;;2.03;1.10;;;7.00;99.90;;;;;;5042409;28;20668;-67
2022/01/18 00:30:41;;;;;;;3.47;1.10;;;7.00;99.90;;;;;;5054518;28;20187;-67
2022/01/18 00:35:42;;;;;;;4.97;1.50;;;7.10;99.90;;;;;;5041199;28;20640;-68
2022/01/18 00:38:17;;;;;;;2.10;1.10;;;7.10;99.90;;;;;;5047711;28;20172;-67
2022/01/18 00:40:44;;;;;;;3.10;1.50;;;7.10;99.90;;;;;;5029643;28;20191;-68
2022/01/18 00:43:10;;;;;;;2.07;1.00;;;7.10;99.90;;;;;;5046614;28;20659;-67
2022/01/18 00:45:36;;;;;;;2.03;1.10;;;7.10;99.90;;;;;;5044205;28;20191;-67
2022/01/18 00:48:03;;;;;;;3.17;1.57;;;7.10;99.90;;;;;;5030104;28;20187;-67
2022/01/18 00:50:32;;;;;;;5.80;1.33;;;7.20;99.90;;;;;;5046586;28;20328;-68
2022/01/18 00:52:58;;;;;;;3.53;1.20;;;7.20;99.90;;;;;;5046439;28;20184;-67
2022/01/18 00:55:32;;;;;;;7.47;1.40;;;7.20;99.90;;;;;;5045549;28;20306;-67
2022/01/18 00:57:58;;;;;;;2.63;1.30;;;7.30;99.90;;;;;;5045730;28;20195;-68
2022/01/18 01:00:24;;;;;;;4.00;1.50;;;7.30;99.90;;;;;;5051325;28;20762;-67
2022/01/18 01:02:50;;;;;;;4.93;1.13;;;7.30;99.90;;;;;;5047000;28;20239;-68
2022/01/18 01:05:17;;;;;;;5.70;1.40;;;7.30;99.90;;;;;;5041917;28;20645;-67
2022/01/18 01:07:43;;;;;;;4.50;1.40;;;7.40;99.90;;;;;;5040386;28;20662;-67
2022/01/18 01:10:09;;;;;;;4.83;1.37;;;7.40;99.90;;;;;;5035974;28;20196;-67
2022/01/18 01:12:36;;;;;;;3.43;1.00;;;7.40;99.90;;;;;;5045695;28;20187;-67
2022/01/18 01:15:10;;;;;;;3.23;1.10;;;7.40;99.90;;;;;;5045764;28;20194;-67
2022/01/18 01:17:45;;;;;;;3.00;1.20;;;7.40;99.90;;;;;;5046913;28;20865;-67
2022/01/18 01:34:19;;;;;;;3.00;1.10;;;7.50;99.90;;;;;;5037621;28;20196;-67
2022/01/18 01:44:46;;;;;;;4.60;1.37;;;7.50;99.90;;;;;;5050895;28;20191;-68
2022/01/18 01:47:20;;;;;;;2.57;1.23;;;7.50;99.90;;;;;;5048825;28;20626;-67
2022/01/18 01:49:50;;;;;;;2.40;1.33;;;7.60;99.90;;;;;;5050849;28;20198;-69
2022/01/18 01:52:21;;;;;;;6.43;1.47;;;7.60;99.90;;;;;;5043752;28;20184;-68
2022/01/18 01:54:47;;;;;;;2.63;1.20;;;7.60;99.90;;;;;;5050672;28;20179;-68
2022/01/18 01:57:13;;;;;;;6.20;1.30;;;7.60;99.90;;;;;;5039753;28;20227;-67
2022/01/18 01:59:40;;;;;;;5.07;1.40;;;7.60;99.90;;;;;;5054094;28;20989;-68
2022/01/18 02:02:07;;;;;;;2.63;1.37;;;7.70;99.90;;;;;;5043952;28;20652;-67
2022/01/18 02:04:33;;;;;;;3.07;1.20;;;7.70;99.90;;;;;;5043073;28;20261;-68
2022/01/18 02:06:59;;;;;;;3.47;1.30;;;7.70;99.90;;;;;;5048122;28;20191;-68
2022/01/18 02:09:26;;;;;;;5.23;1.40;;;7.80;99.90;;;;;;5046445;28;20271;-68
2022/01/18 02:11:55;;;;;;;4.30;1.30;;;7.80;99.90;;;;;;5048779;28;20183;-68
2022/01/18 02:14:23;;;;;;;7.80;3.17;;;7.80;99.90;;;;;;5045465;28;20731;-68
2022/01/18 02:22:20;;;;;;;3.20;1.30;;;7.80;99.90;;;;;;5056898;28;20326;-67
2022/01/18 02:24:47;;;;;;;2.23;1.20;;;7.80;99.90;;;;;;5050578;28;20583;-67
2022/01/18 02:27:14;;;;;;;2.47;1.30;;;7.80;99.90;;;;;;5049649;28;21523;-68
2022/01/18 02:29:41;;;;;;;5.93;1.40;;;7.80;99.90;;;;;;5053583;28;20223;-70
2022/01/18 02:32:08;;;;;;;7.93;1.40;;;7.80;99.90;;;;;;5048768;28;20582;-68
2022/01/18 02:34:34;;;;;;;4.20;1.60;;;7.70;99.90;;;;;;5048770;28;20278;-68
2022/01/18 02:37:03;;;;;;;3.50;1.70;;;7.70;99.90;;;;;;5047814;28;20702;-68
2022/01/18 02:39:32;;;;;;;2.83;1.50;;;7.70;99.90;;;;;;5048732;28;20893;-68
2022/01/18 02:42:05;;;;;;;3.23;1.60;;;7.70;99.90;;;;;;5048649;28;20242;-68
2022/01/18 02:44:34;;;;;;;6.27;1.60;;;7.70;99.90;;;;;;5048608;28;20192;-68
2022/01/18 02:47:01;;;;;;;3.10;1.20;;;7.80;99.90;;;;;;5048434;28;20182;-68
2022/01/18 02:49:29;;;;;;;3.77;1.77;;;7.80;99.90;;;;;;5048843;28;20274;-68
2022/01/18 02:51:58;;;;;;;2.37;1.30;;;7.80;99.90;;;;;;5038750;28;20230;-68
2022/01/18 02:54:25;;;;;;;2.60;1.33;;;7.80;99.90;;;;;;5048401;28;20253;-68
2022/01/18 02:57:00;;;;;;;3.40;1.37;;;7.80;99.90;;;;;;5047888;28;20211;-68
2022/01/18 02:59:47;;;;;;;5.03;1.50;;;7.90;99.90;;;;;;5028183;28;20975;-68
2022/01/18 03:05:07;;;;;;;2.63;1.50;;;7.90;99.90;;;;;;5041090;28;20191;-67
2022/01/18 03:07:34;;;;;;;3.40;1.37;;;7.90;99.90;;;;;;5048316;28;20196;-67
2022/01/18 03:10:00;;;;;;;5.93;1.70;;;7.90;99.90;;;;;;5048261;28;20307;-67
2022/01/18 03:12:27;;;;;;;8.80;2.00;;;8.00;99.90;;;;;;5048319;28;20187;-67
2022/01/18 03:14:53;;;;;;;5.27;1.67;;;8.00;99.90;;;;;;5049069;28;20183;-67
2022/01/18 03:17:19;;;;;;;4.73;1.43;;;8.00;99.90;;;;;;5042992;28;20206;-67
2022/01/18 03:19:46;;;;;;;4.07;1.60;;;8.00;99.90;;;;;;5031246;28;20195;-67
2022/01/18 03:22:13;;;;;;;3.80;1.67;;;8.00;99.90;;;;;;5030015;28;20220;-67
2022/01/18 03:24:59;;;;;;;2.17;1.60;;;8.00;99.90;;;;;;5031574;28;20685;-68
2022/01/18 03:30:11;;;;;;;3.17;1.50;;;7.90;99.90;;;;;;5048493;28;20179;-68
2022/01/18 03:32:38;;;;;;;4.47;1.90;;;7.90;99.90;;;;;;5049010;28;20273;-68
2022/01/18 03:35:08;;;;;;;3.17;1.80;;;7.80;99.90;;;;;;5048020;28;20184;-68
2022/01/18 03:37:36;;;;;;;4.47;1.90;;;7.80;99.90;;;;;;5047772;28;20195;-67
2022/01/18 03:40:05;;;;;;;2.57;1.40;;;7.80;99.90;;;;;;5047721;28;20183;-67
2022/01/18 03:42:49;;;;;;;3.07;1.70;;;7.80;99.90;;;;;;5048518;28;20204;-68
2022/01/18 03:45:30;;;;;;;4.27;1.53;;;7.80;99.90;;;;;;5030992;28;20275;-67
2022/01/18 03:48:01;;;;;;;4.53;1.80;;;7.80;99.90;;;;;;5046405;28;20245;-68
2022/01/18 03:50:28;;;;;;;4.17;1.83;;;7.80;99.90;;;;;;5031141;28;20175;-67
2022/01/18 03:52:54;;;;;;;6.77;2.00;;;7.80;99.90;;;;;;5048527;28;20184;-68
2022/01/18 03:55:23;;;;;;;4.67;1.77;;;7.70;99.90;;;;;;5047996;28;20195;-67
2022/01/18 03:57:50;;;;;;;2.70;1.60;;;7.70;99.90;;;;;;5046448;28;20276;-67
2022/01/18 04:00:23;;;;;;;4.20;1.63;;;7.60;99.90;;;;;;5047960;28;20190;-68
2022/01/18 04:02:53;;;;;;;4.13;1.30;;;7.70;99.90;;;;;;5034158;28;20302;-68
2022/01/18 04:05:20;;;;;;;5.63;1.57;;;7.70;99.90;;;;;;5039901;28;20191;-67
2022/01/18 04:07:48;;;;;;;5.20;1.60;;;7.60;99.90;;;;;;5030101;28;20806;-68
2022/01/18 04:10:15;;;;;;;2.37;1.20;;;7.60;99.90;;;;;;5048363;28;20944;-67
2022/01/18 04:12:42;;;;;;;4.50;1.47;;;7.60;99.90;;;;;;5063584;28;20225;-67
2022/01/18 04:15:11;;;;;;;3.83;1.80;;;7.50;99.90;;;;;;5048579;28;20202;-67
2022/01/18 04:31:17;;;;;;;5.00;1.70;;;7.50;99.90;;;;;;5025487;28;20632;-68
2022/01/18 04:33:43;;;;;;;4.17;1.67;;;7.60;99.90;;;;;;5021380;28;20199;-67
2022/01/18 04:36:10;;;;;;;3.73;1.40;;;7.60;99.90;;;;;;5046546;28;20182;-67
2022/01/18 04:38:37;;;;;;;2.67;1.50;;;7.60;99.90;;;;;;5047696;28;20191;-67
2022/01/18 04:41:08;;;;;;;3.50;1.60;;;7.60;99.90;;;;;;5046094;28;20317;-67
2022/01/18 04:48:52;;;;;;;3.67;1.70;;;7.40;99.90;;;;;;5046363;28;20621;-67
2022/01/18 04:51:18;;;;;;;2.73;1.60;;;7.40;99.90;;;;;;5046488;28;20988;-67
2022/01/18 04:53:52;;;;;;;5.40;1.60;;;7.40;99.90;;;;;;5046263;28;20192;-68
2022/01/18 04:56:29;;;;;;;4.53;1.40;;;7.40;99.90;;;;;;5046101;28;20207;-67
2022/01/18 04:58:56;;;;;;;4.27;1.70;;;7.40;99.90;;;;;;5046221;28;20612;-67
2022/01/18 05:01:23;;;;;;;6.03;1.80;;;7.40;99.90;;;;;;5048315;28;20240;-68
2022/01/18 05:03:49;;;;;;;3.53;1.67;;;7.50;99.90;;;;;;5047589;28;20295;-68
2022/01/18 05:06:16;;;;;;;4.37;1.70;;;7.50;99.90;;;;;;5062237;28;20201;-67
2022/01/18 05:08:43;;;;;;;7.40;1.80;;;7.50;99.90;;;;;;5046453;28;20202;-67
2022/01/18 05:11:14;;;;;;;5.43;1.63;;;7.60;99.90;;;;;;5046041;28;20615;-67
2022/01/18 05:19:20;;;;;;;3.80;1.60;;;7.80;99.90;;;;;;5046363;28;20583;-67
2022/01/18 05:24:14;;;;;;;3.90;1.40;;;7.90;99.90;;;;;;5046402;28;20195;-69
2022/01/18 05:26:40;;;;;;;5.73;1.40;;;8.00;99.90;;;;;;5046299;28;20183;-67
2022/01/18 05:29:06;;;;;;;2.87;1.67;;;8.00;99.90;;;;;;5046952;28;20263;-67
2022/01/18 05:31:33;;;;;;;2.13;1.50;;;8.10;99.90;;;;;;5045597;28;20196;-68
2022/01/18 05:33:59;;;;;;;5.33;2.07;;;8.10;99.90;;;;;;5047360;28;20498;-67
2022/01/18 05:36:25;;;;;;;6.03;1.90;;;8.10;99.90;;;;;;5047264;28;20183;-67
2022/01/18 05:38:52;;;;;;;11.60;2.00;;;8.20;99.90;;;;;;5045979;28;20187;-68
2022/01/18 05:41:18;;;;;;;5.23;1.70;;;8.20;99.90;;;;;;5045288;28;20206;-67
2022/01/18 05:43:45;;;;;;;3.87;1.60;;;8.30;99.90;;;;;;5047325;28;20176;-67
2022/01/18 05:46:11;;;;;;;5.27;1.37;;;8.30;99.90;;;;;;5052047;28;20210;-67
2022/01/18 05:48:38;;;;;;;4.97;1.47;;;8.30;99.90;;;;;;5046109;28;20278;-67
2022/01/18 05:51:04;;;;;;;5.40;1.60;;;8.30;99.90;;;;;;5045725;28;20643;-68
2022/01/18 05:53:39;;;;;;;4.63;1.60;;;8.40;99.90;;;;;;5029138;28;20761;-68
2022/01/18 05:56:16;;;;;;;8.00;1.60;;;8.40;99.90;;;;;;5045267;28;20952;-68
2022/01/18 05:58:44;;;;;;;3.77;1.40;;;8.40;99.90;;;;;;5043867;28;20187;-70
2022/01/18 06:01:14;;;;;;;4.57;1.70;;;8.40;99.90;;;;;;5026234;28;20739;-69
2022/01/18 08:39:08;;;;;;;7.20;2.10;;;9.40;99.90;;;;;;5139750;27;20576;-65
2022/01/18 08:41:37;;;;;;;5.37;2.17;;;9.40;99.90;;;;;;5082707;28;20203;-67
2022/01/18 08:44:05;;;;;;;7.23;2.33;;;9.40;99.90;;;;;;5124606;28;20241;-65
2022/01/18 08:46:33;;;;;;;8.70;2.40;;;9.40;99.90;;;;;;5068728;28;20185;-63
2022/01/18 08:49:01;;;;;;;9.70;2.57;;;9.40;99.90;;;;;;5108827;28;20177;-65
2022/01/18 08:51:28;;;;;;;5.93;2.10;;;9.50;99.90;;;;;;5088837;28;20180;-65
2022/01/18 08:53:55;;;;;;;5.57;2.50;;;9.50;99.90;;;;;;5124008;28;20185;-63
2022/01/18 08:56:22;;;;;;;5.17;2.20;;;9.50;99.90;;;;;;5105507;28;20208;-64
2022/01/18 08:58:49;;;;;;;7.80;2.23;;;9.60;99.90;;;;;;5122355;28;20703;-65
2022/01/18 09:01:16;;;;;;;6.57;2.57;;;9.60;99.90;;;;;;5105093;28;20565;-67
2022/01/18 09:03:44;;;;;;;5.10;2.37;;;9.60;99.90;;;;;;5106039;28;20180;-64
2022/01/18 09:06:13;;;;;;;6.83;2.30;;;9.60;99.90;;;;;;5105031;28;20711;-66
2022/01/18 09:08:41;;;;;;;9.60;3.30;;;9.60;99.90;;;;;;5117427;28;20223;-68
2022/01/18 09:11:13;;;;;;;11.67;2.67;;;9.60;99.90;;;;;;5081585;28;20245;-67
2022/01/18 09:13:40;;;;;;;10.70;2.07;;;9.60;99.90;;;;;;5114204;28;20204;-65
2022/01/18 09:16:09;;;;;;;6.37;2.07;;;9.50;99.90;;;;;;5090100;28;20209;-66
2022/01/18 09:18:37;;;;;;;8.63;2.43;;;9.50;99.90;;;;;;5090641;28;20233;-65
2022/01/18 09:21:04;;;;;;;6.07;2.37;;;9.50;99.90;;;;;;5110678;28;20204;-65
2022/01/18 09:23:32;;;;;;;8.83;1.90;;;9.50;99.90;;;;;;5074136;28;20209;-66
2022/01/18 09:25:59;;;;;;;9.43;1.90;;;9.40;99.90;;;;;;5083817;28;20212;-67
2022/01/18 09:28:25;;;;;;;4.83;1.80;;;9.40;99.90;;;;;;5100287;28;20197;-64
2022/01/18 09:30:52;;;;;;;6.40;1.97;;;9.30;99.90;;;;;;5094783;28;20320;-65
2022/01/18 09:33:20;;;;;;;5.97;1.70;;;9.30;99.90;;;;;;5081165;28;20581;-66
2022/01/18 09:35:50;;;;;;;8.47;1.93;;;9.30;99.90;;;;;;5098055;28;20285;-65
2022/01/18 09:38:17;;;;;;;4.17;1.90;;;9.20;99.90;;;;;;5084650;28;20218;-66
2022/01/18 09:40:45;;;;;;;7.27;2.00;;;9.20;99.90;;;;;;5080039;28;20975;-64
2022/01/18 09:43:14;;;;;;;10.80;2.00;;;9.30;99.90;;;;;;5081872;28;20205;-66
2022/01/18 09:45:45;;;;;;;7.70;2.50;;;9.30;99.90;;;;;;5084697;28;20201;-65
2022/01/18 09:48:14;;;;;;;8.03;2.23;;;9.20;99.90;;;;;;5082551;28;20522;-67
2022/01/18 09:50:45;;;;;;;9.43;2.27;;;9.30;99.90;;;;;;5080815;28;20262;-64
2022/01/18 09:53:13;;;;;;;9.27;2.30;;;9.20;99.90;;;;;;5106520;28;20244;-66
2022/01/18 09:55:44;;;;;;;7.87;2.27;;;9.20;99.90;;;;;;5071249;28;20235;-64
2022/01/18 09:58:12;;;;;;;5.17;2.40;;;9.20;99.90;;;;;;5071248;28;20220;-64
2022/01/18 10:00:43;;;;;;;14.87;3.13;;;9.20;99.90;;;;;;5080717;28;20695;-64
2022/01/18 10:03:43;;;;;;;10.67;2.53;;;9.20;99.90;;;;;;5099957;28;20209;-66
2022/01/18 10:06:13;;;;;;;8.73;3.07;;;9.30;99.90;;;;;;5064334;28;20617;-66
2022/01/18 10:08:48;;;;;;;8.27;2.67;;;9.30;99.90;;;;;;5080150;28;20250;-66
2022/01/18 10:11:18;;;;;;;11.57;2.57;;;9.30;99.90;;;;;;5080604;28;20738;-66
2022/01/18 10:13:49;;;;;;;8.27;2.20;;;9.30;99.90;;;;;;5078376;28;20228;-65
2022/01/18 10:16:20;;;;;;;9.73;2.47;;;9.30;99.90;;;;;;5085220;28;20304;-66
2022/01/18 10:18:56;;;;;;;6.20;2.00;;;9.30;99.90;;;;;;5078377;28;20214;-64
2022/01/18 10:21:30;;;;;;;13.43;2.70;;;9.40;99.90;;;;;;5093653;28;21073;-64
2022/01/18 10:24:21;;;;;;;16.53;2.30;;;9.40;99.90;;;;;;5077484;28;20224;-67
2022/01/18 10:26:52;;;;;;;11.37;2.23;;;9.50;99.90;;;;;;5100113;27;20580;-65
2022/01/18 10:29:31;;;;;;;10.30;2.53;;;9.50;99.90;;;;;;5084397;28;20213;-66
2022/01/18 10:32:08;;;;;;;8.77;2.23;;;9.50;99.90;;;;;;5098902;28;20808;-65
2022/01/18 10:37:31;;;;;;;12.97;2.20;;;9.60;99.90;;;;;;5080642;28;20531;-64
2022/01/18 10:40:12;;;;;;;11.67;2.17;;;9.70;99.90;;;;;;5078712;28;20265;-64
2022/01/18 10:42:52;;;;;;;9.70;2.10;;;9.70;99.90;;;;;;5072931;28;20201;-65
2022/01/18 10:45:30;;;;;;;11.77;2.40;;;9.60;99.90;;;;;;5079715;28;20205;-64
2022/01/18 10:48:14;;;;;;;9.63;2.10;;;9.60;99.90;;;;;;5081459;28;20220;-65
2022/01/18 10:50:45;;;;;;;10.20;2.00;;;9.70;99.90;;;;;;5074171;28;20304;-64
2022/01/18 10:53:21;;;;;;;10.60;2.00;;;9.70;99.90;;;;;;5062142;28;20205;-64
2022/01/18 10:56:17;;;;;;;9.27;2.07;;;9.70;99.90;;;;;;5078765;28;20715;-67
2022/01/18 10:58:55;;;;;;;7.00;2.00;;;9.70;99.90;;;;;;5097478;28;20198;-66
2022/01/18 11:01:25;;;;;;;8.63;2.50;;;9.70;99.90;;;;;;5097438;28;20202;-68
2022/01/18 11:04:16;;;;;;;13.37;2.33;;;9.70;99.90;;;;;;5068562;28;20316;-65
2022/01/18 11:06:59;;;;;;;8.10;2.30;;;9.70;99.90;;;;;;5079742;28;20544;-66
2022/01/18 11:09:27;;;;;;;10.77;2.57;;;9.80;99.90;;;;;;5074804;28;20299;-64
2022/01/18 11:11:55;;;;;;;14.20;2.70;;;9.80;99.90;;;;;;5061648;28;20760;-65
2022/01/18 11:14:25;;;;;;;10.93;2.93;;;9.70;99.90;;;;;;5072110;28;20296;-67
2022/01/18 11:16:57;;;;;;;13.50;2.90;;;9.70;99.90;;;;;;5079218;28;20330;-65
2022/01/18 11:22:03;;;;;;;8.87;2.53;;;9.70;99.90;;;;;;5081857;28;20256;-67
2022/01/18 11:24:31;;;;;;;11.47;2.60;;;9.70;99.90;;;;;;5077357;28;20661;-67
2022/01/18 11:27:01;;;;;;;10.13;2.77;;;9.80;99.90;;;;;;5097872;28;20201;-65
2022/01/18 11:29:29;;;;;;;10.60;2.13;;;9.80;99.90;;;;;;5100781;28;20703;-65
2022/01/18 11:31:57;;;;;;;6.60;1.97;;;9.90;99.90;;;;;;5083784;28;20217;-66
2022/01/18 11:34:39;;;;;;;5.77;1.90;;;9.80;99.90;;;;;;5098111;28;20200;-67
2022/01/18 11:37:48;;;;;;;12.77;2.27;;;9.90;99.90;;;;;;5103347;28;20243;-66
2022/01/18 11:40:17;;;;;;;13.47;2.80;;;10.00;99.90;;;;;;5082557;28;20204;-66
2022/01/18 11:42:54;;;;;;;16.30;3.20;;;10.20;99.90;;;;;;5064768;28;20209;-65
2022/01/18 11:45:31;;;;;;;10.43;2.57;;;10.30;99.90;;;;;;5057862;28;20220;-65
2022/01/18 11:48:19;;;;;;;15.63;3.37;;;10.50;99.90;;;;;;5078728;28;20201;-65
2022/01/18 11:51:15;;;;;;;17.80;3.27;;;10.60;99.90;;;;;;5095638;28;20212;-66
2022/01/18 11:56:37;;;;;;;11.37;3.07;;;10.40;99.90;;;;;;5101532;28;20189;-65
2022/01/18 11:59:38;;;;;;;9.27;2.17;;;10.30;99.90;;;;;;5101839;28;20209;-68
2022/01/18 12:02:05;;;;;;;8.03;2.03;;;10.20;99.90;;;;;;5084931;28;20192;-65
2022/01/18 12:07:37;;;;;;;6.77;1.90;;;10.10;99.90;;;;;;5077874;28;20312;-66
2022/01/18 12:10:38;;;;;;;7.03;2.13;;;10.10;99.90;;;;;;5098368;28;20185;-65
2022/01/18 12:13:12;;;;;;;17.47;2.40;;;10.00;99.90;;;;;;5079849;28;22045;-66
2022/01/18 12:15:47;;;;;;;7.97;2.10;;;9.90;99.90;;;;;;5090539;28;20221;-67
2022/01/18 12:18:20;;;;;;;8.93;2.93;;;9.80;99.90;;;;;;5097039;28;20201;-66
2022/01/18 12:20:51;;;;;;;6.50;1.53;;;9.80;99.90;;;;;;5078579;28;20231;-65
2022/01/18 12:23:49;;;;;;;8.27;1.50;;;9.60;99.90;;;;;;5077609;28;20232;-65
2022/01/18 12:34:48;;;;;;;8.60;2.70;;;10.30;99.90;;;;;;5083569;28;20208;-64
2022/01/18 12:37:24;;;;;;;11.60;2.87;;;10.30;99.90;;;;;;5081800;28;20205;-68
2022/01/18 12:45:16;;;;;;;11.33;3.13;;;10.30;99.90;;;;;;5076672;28;20209;-65
2022/01/18 12:47:47;;;;;;;17.40;3.70;;;10.30;99.90;;;;;;5086328;28;20201;-67
2022/01/18 12:50:19;;;;;;;11.73;2.93;;;10.30;99.90;;;;;;5075987;28;20205;-66
2022/01/18 12:53:16;;;;;;;4.87;1.80;;;10.20;99.90;;;;;;5082917;28;20282;-67
2022/01/18 12:55:48;;;;;;;6.93;1.67;;;10.10;99.90;;;;;;5094432;28;20852;-66
2022/01/18 12:58:43;;;;;;;5.60;1.50;;;10.00;99.90;;;;;;5081173;28;20220;-66
2022/01/18 13:01:13;;;;;;;9.70;1.87;;;9.90;99.90;;;;;;5097514;28;20556;-66
2022/01/18 13:03:48;;;;;;;5.30;1.60;;;9.40;99.90;;;;;;5078812;28;20233;-64
2022/01/18 13:06:20;;;;;;;12.27;1.73;;;9.30;99.90;;;;;;5101803;28;20668;-65
2022/01/18 13:08:48;;;;;;;8.37;1.80;;;9.40;99.90;;;;;;5058322;28;20214;-66
2022/01/18 13:11:42;;;;;;;14.07;2.53;;;9.60;99.90;;;;;;5063618;28;20201;-66
2022/01/18 13:25:13;;;;;;;22.37;3.90;;;10.20;99.90;;;;;;5090127;28;20209;-64
2022/01/18 13:27:45;;;;;;;20.70;3.30;;;10.20;99.90;;;;;;5090889;28;20240;-64
2022/01/18 13:30:28;;;;;;;22.90;3.77;;;10.30;99.90;;;;;;5103036;28;20201;-64
2022/01/18 13:32:59;;;;;;;9.20;3.17;;;10.20;99.90;;;;;;5098287;27;20204;-65
2022/01/18 13:35:30;;;;;;;14.43;4.70;;;10.20;99.90;;;;;;5068550;28;20209;-66
2022/01/18 13:38:03;;;;;;;16.87;3.30;;;10.10;99.90;;;;;;5082802;28;20213;-66
2022/01/18 13:40:35;;;;;;;15.93;3.47;;;10.00;99.90;;;;;;5069837;28;20209;-65
2022/01/18 13:43:09;;;;;;;13.43;2.83;;;9.80;99.90;;;;;;5067143;28;20205;-69
2022/01/18 13:45:40;;;;;;;13.17;2.50;;;9.80;99.90;;;;;;5066045;28;20691;-67
2022/01/18 13:48:12;;;;;;;8.93;2.63;;;9.70;99.90;;;;;;5095251;27;20446;-64
2022/01/18 13:50:56;;;;;;;14.03;3.20;;;9.70;99.90;;;;;;5080734;28;20277;-65
2022/01/18 13:53:31;;;;;;;13.10;2.73;;;9.70;99.90;;;;;;5104379;27;20181;-66
2022/01/18 13:55:59;;;;;;;17.93;2.97;;;9.70;99.90;;;;;;5080416;28;20201;-63
2022/01/18 13:58:33;;;;;;;13.10;3.27;;;9.70;99.90;;;;;;5083337;28;20201;-64
2022/01/18 14:01:24;;;;;;;13.30;3.13;;;9.70;99.90;;;;;;5097573;28;20189;-66
2022/01/18 14:04:12;;;;;;;20.13;2.97;;;9.80;99.90;;;;;;5083861;28;20245;-67
2022/01/18 14:06:43;;;;;;;19.87;3.60;;;9.90;99.90;;;;;;5099608;28;20178;-65
2022/01/18 14:09:12;;;;;;;21.77;3.83;;;9.80;99.90;;;;;;5084302;28;20189;-64
2022/01/18 14:11:47;;;;;;;12.53;3.20;;;9.80;99.90;;;;;;5086413;28;21019;-65
2022/01/18 14:14:24;;;;;;;26.60;3.80;;;9.80;99.90;;;;;;5085902;28;20181;-63
2022/01/18 14:17:06;;;;;;;14.63;3.33;;;9.80;99.90;;;;;;5084147;28;20665;-64
2022/01/18 14:19:37;;;;;;;15.00;3.03;;;9.80;99.90;;;;;;5099727;27;20198;-65
2022/01/18 14:22:38;;;;;;;18.27;3.87;;;9.90;99.90;;;;;;5089150;27;20197;-65
2022/01/18 14:25:08;;;;;;;25.33;4.27;;;9.90;99.90;;;;;;5056014;28;20221;-64
2022/01/18 14:27:41;;;;;;;17.83;4.23;;;9.90;99.90;;;;;;5109797;27;20243;-66
2022/01/18 14:30:37;;;;;;;18.10;4.10;;;9.90;99.90;;;;;;5082308;28;20213;-66
2022/01/18 14:33:10;;;;;;;28.13;4.20;;;9.90;99.90;;;;;;5082240;27;20208;-66
2022/01/18 14:35:45;;;;;;;16.43;4.33;;;9.90;99.90;;;;;;5104877;27;20254;-66
2022/01/18 14:38:15;;;;;;;22.53;4.13;;;9.90;99.90;;;;;;5067168;28;20204;-66
2022/01/18 14:40:48;;;;;;;21.20;4.43;;;9.90;99.90;;;;;;5088047;28;20193;-65
2022/01/18 14:43:39;;;;;;;25.40;4.50;;;9.90;99.90;;;;;;5099386;27;20340;-67
2022/01/18 14:46:21;;;;;;;23.13;4.80;;;10.00;99.90;;;;;;5062044;28;20197;-68
2022/01/18 14:48:47;;;;;;;20.43;4.10;;;10.00;99.90;;;;;;5094863;28;20194;-64
2022/01/18 14:51:13;;;;;;;18.13;3.83;;;10.00;99.90;;;;;;5074143;28;20518;-66
2022/01/18 14:53:43;;;;;;;21.23;4.37;;;10.00;99.90;;;;;;5076249;28;20527;-66
2022/01/18 14:56:09;;;;;;;23.20;3.73;;;10.00;99.90;;;;;;5084435;28;20871;-66
2022/01/18 14:58:36;;;;;;;17.93;4.03;;;9.90;99.90;;;;;;5104706;28;20685;-65
2022/01/18 15:01:05;;;;;;;18.43;3.70;;;9.90;99.90;;;;;;5071429;28;20193;-67
2022/01/18 15:03:31;;;;;;;21.57;4.07;;;9.80;99.90;;;;;;5106167;28;20182;-65
2022/01/18 15:05:57;;;;;;;17.80;3.43;;;9.80;99.90;;;;;;5078703;28;20177;-64
2022/01/18 15:08:24;;;;;;;12.03;2.90;;;9.70;99.90;;;;;;5105068;28;20181;-64
2022/01/18 15:10:50;;;;;;;21.67;3.57;;;9.70;99.90;;;;;;5081021;28;20189;-66
2022/01/18 15:13:16;;;;;;;12.30;2.80;;;9.60;99.90;;;;;;5103983;28;20669;-65
2022/01/18 15:15:43;;;;;;;15.97;2.70;;;9.60;99.90;;;;;;5099525;28;20197;-68
2022/01/18 15:18:10;;;;;;;18.00;3.33;;;9.60;99.90;;;;;;5103043;28;20201;-65
2022/01/18 15:20:37;;;;;;;13.43;3.63;;;9.60;99.90;;;;;;5078121;28;20221;-69
2022/01/18 15:23:03;;;;;;;18.07;3.63;;;9.60;99.90;;;;;;5080389;28;20192;-66
2022/01/18 15:25:30;;;;;;;18.83;3.73;;;9.60;99.90;;;;;;5079965;28;20280;-66
2022/01/18 15:27:57;;;;;;;18.27;3.53;;;9.60;99.90;;;;;;5103528;28;20738;-67
2022/01/18 15:30:25;;;;;;;27.03;4.30;;;9.60;99.90;;;;;;5088430;28;20197;-66
2022/01/18 15:32:54;;;;;;;17.33;4.07;;;9.60;99.90;;;;;;5060024;28;20965;-67
2022/01/18 15:35:20;;;;;;;15.17;3.77;;;9.60;99.90;;;;;;5097212;28;21018;-66
2022/01/18 15:37:47;;;;;;;15.87;3.90;;;9.60;99.90;;;;;;5079115;28;20213;-65
2022/01/18 15:40:14;;;;;;;23.30;4.10;;;9.60;99.90;;;;;;5080775;28;20248;-66
2022/01/18 15:42:41;;;;;;;25.20;4.07;;;9.60;99.90;;;;;;5085095;28;20261;-64
2022/01/18 15:45:10;;;;;;;26.77;4.73;;;9.60;99.90;;;;;;5087650;28;20197;-66
2022/01/18 15:47:37;;;;;;;20.43;3.73;;;9.70;99.90;;;;;;5080350;28;20665;-67
2022/01/18 15:50:06;;;;;;;15.20;3.83;;;9.70;99.90;;;;;;5100206;28;20184;-64
2022/01/18 15:52:32;;;;;;;15.93;3.60;;;9.70;99.90;;;;;;5092633;28;20201;-65
2022/01/18 15:54:59;;;;;;;28.83;4.40;;;9.70;99.90;;;;;;5060587;28;20314;-64
2022/01/18 15:57:26;;;;;;;18.90;4.27;;;9.80;99.90;;;;;;5095631;28;20202;-64
2022/01/18 15:59:53;;;;;;;25.50;3.77;;;9.80;99.90;;;;;;5102753;28;20196;-67
2022/01/18 16:02:19;;;;;;;15.17;3.40;;;9.80;99.90;;;;;;5085120;28;20297;-65
2022/01/18 16:04:46;;;;;;;18.40;4.40;;;9.80;99.90;;;;;;5070968;28;20896;-64
2022/01/18 16:07:12;;;;;;;16.17;3.63;;;9.80;99.90;;;;;;5079137;28;20185;-68
2022/01/18 16:09:39;;;;;;;19.40;3.67;;;9.80;99.90;;;;;;5105269;28;20876;-66
2022/01/18 16:12:07;;;;;;;17.87;4.07;;;9.80;99.90;;;;;;5105632;28;20208;-65
2022/01/18 16:14:33;;;;;;;19.30;4.10;;;9.90;99.90;;;;;;5104851;28;20189;-64
2022/01/18 16:17:01;;;;;;;20.77;4.00;;;9.90;99.90;;;;;;5087014;28;20205;-67
2022/01/18 16:19:28;;;;;;;19.23;3.90;;;9.90;99.90;;;;;;5075332;28;20189;-65
2022/01/18 16:21:56;;;;;;;20.50;4.03;;;9.90;99.90;;;;;;5081989;28;20193;-66
2022/01/18 16:24:23;;;;;;;20.00;4.43;;;9.90;99.90;;;;;;5097404;27;20181;-67
2022/01/18 16:26:54;;;;;;;18.03;4.37;;;10.00;99.90;;;;;;5100222;28;20192;-65
2022/01/18 16:29:23;;;;;;;20.00;5.30;;;9.90;99.90;;;;;;5085390;28;20213;-68
2022/01/18 16:31:53;;;;;;;16.67;4.10;;;9.90;99.90;;;;;;5079873;28;20254;-64
2022/01/18 16:34:21;;;;;;;20.57;4.77;;;9.90;99.90;;;;;;5069199;28;20182;-65
2022/01/18 16:36:49;;;;;;;15.93;4.00;;;9.80;99.90;;;;;;5086682;28;20189;-66
2022/01/18 16:39:16;;;;;;;25.97;4.03;;;9.80;99.90;;;;;;5085395;28;20682;-68
2022/01/18 16:41:44;;;;;;;16.83;4.40;;;9.80;99.90;;;;;;5086609;28;20507;-65
2022/01/18 16:44:12;;;;;;;18.43;4.40;;;9.70;99.90;;;;;;5084888;28;20200;-66
2022/01/18 16:46:38;;;;;;;19.10;4.03;;;9.70;99.90;;;;;;5085760;28;20208;-66
2022/01/18 16:49:09;;;;;;;18.43;3.93;;;9.70;99.90;;;;;;5081987;27;20209;-66
2022/01/18 16:51:41;;;;;;;18.17;4.03;;;9.70;99.90;;;;;;5101682;28;20188;-66
2022/01/18 16:54:09;;;;;;;16.57;3.60;;;9.70;99.90;;;;;;5080813;28;20634;-66
2022/01/18 16:56:36;;;;;;;15.30;3.43;;;9.70;99.90;;;;;;5089650;28;20190;-66
2022/01/18 16:59:03;;;;;;;13.63;3.43;;;9.70;99.90;;;;;;5111506;27;20671;-65
2022/01/18 17:01:31;;;;;;;16.13;3.47;;;9.60;99.90;;;;;;5087710;28;20613;-67
2022/01/18 17:04:00;;;;;;;15.17;3.80;;;9.60;99.90;;;;;;5112254;27;20177;-66
2022/01/18 17:06:27;;;;;;;15.43;3.30;;;9.60;99.90;;;;;;5087991;28;20992;-65
2022/01/18 17:08:55;;;;;;;16.37;3.83;;;9.60;99.90;;;;;;5087297;28;20188;-64
2022/01/18 17:11:21;;;;;;;9.40;2.90;;;9.60;99.90;;;;;;5071813;28;20203;-65
2022/01/18 17:13:48;;;;;;;15.73;3.37;;;9.70;99.90;;;;;;5084281;28;20189;-68
2022/01/18 17:16:14;;;;;;;12.27;3.63;;;9.60;99.90;;;;;;5102340;28;20568;-68
2022/01/18 17:18:41;;;;;;;19.80;3.20;;;9.60;99.90;;;;;;5098678;28;20216;-66
2022/01/18 17:21:08;;;;;;;14.70;3.23;;;9.70;99.90;;;;;;5104568;28;20185;-67
2022/01/18 17:23:35;;;;;;;17.67;4.10;;;9.70;99.90;;;;;;5106562;28;20657;-67
2022/01/18 17:26:01;;;;;;;22.00;3.70;;;9.70;99.90;;;;;;5079106;28;20247;-69
2022/01/18 17:28:28;;;;;;;24.50;3.93;;;9.70;99.90;;;;;;5070078;28;20217;-66